sensor_id;sensor_type;location;lat;lon;timestamp;temperature;humidity
23083;DHT22;11709;52.420;10.538;2022-09-30T00:02:50;7.80;99.90
23083;DHT22;11709;52.420;10.538;2022-09-30T00:06:53;7.80;99.90
23083;DHT22;11709;52.420;10.538;2022-09-30T00:15:05;7.70;99.90
23083;DHT22;11709;52.420;10.538;2022-09-30T00:19:08;7.60;99.90
23083;DHT22;11709;52.420;10.538;2022-09-30T00:23:10;7.50;99.90
23083;DHT22;11709;52.420;10.538;2022-09-30T00:27:13;7.60;99.90
23083;DHT22;11709;52.420;10.538;2022-09-30T00:31:19;7.70;99.90
23083;DHT22;11709;52.420;10.538;2022-09-30T00:35:21;7.70;99.90
23083;DHT22;11709;52.420;10.538;2022-09-30T00:39:26;7.80;99.90
23083;DHT22;11709;52.420;10.538;2022-09-30T00:43:43;7.70;99.90
23083;DHT22;11709;52.420;10.538;2022-09-30T00:47:52;7.70;99.90
23083;DHT22;11709;52.420;10.538;2022-09-30T00:51:56;7.70;99.90
23083;DHT22;11709;52.420;10.538;2022-09-30T00:56:03;7.70;99.90
23083;DHT22;11709;52.420;10.538;2022-09-30T01:00:07;7.70;99.90
23083;DHT22;11709;52.420;10.538;2022-09-30T01:04:15;7.60;99.90
23083;DHT22;11709;52.420;10.538;2022-09-30T01:08:20;7.60;99.90
23083;DHT22;11709;52.420;10.538;2022-09-30T01:12:24;7.50;99.90
23083;DHT22;11709;52.420;10.538;2022-09-30T01:21:02;7.40;99.90
23083;DHT22;11709;52.420;10.538;2022-09-30T01:29:39;7.30;99.90
23083;DHT22;11709;52.420;10.538;2022-09-30T01:33:44;7.20;99.90
23083;DHT22;11709;52.420;10.538;2022-09-30T01:38:22;7.20;99.90
23083;DHT22;11709;52.420;10.538;2022-09-30T01:51:04;7.20;99.90
23083;DHT22;11709;52.420;10.538;2022-09-30T01:59:06;7.20;99.90
23083;DHT22;11709;52.420;10.538;2022-09-30T02:03:17;7.20;99.90
23083;DHT22;11709;52.420;10.538;2022-09-30T02:07:25;7.10;99.90
23083;DHT22;11709;52.420;10.538;2022-09-30T02:11:31;7.10;99.90
23083;DHT22;11709;52.420;10.538;2022-09-30T02:15:40;7.10;99.90
23083;DHT22;11709;52.420;10.538;2022-09-30T02:19:45;7.10;99.90
23083;DHT22;11709;52.420;10.538;2022-09-30T02:23:52;7.10;99.90
23083;DHT22;11709;52.420;10.538;2022-09-30T02:27:57;7.00;99.90
23083;DHT22;11709;52.420;10.538;2022-09-30T02:32:08;7.00;99.90
23083;DHT22;11709;52.420;10.538;2022-09-30T02:36:14;7.00;99.90
23083;DHT22;11709;52.420;10.538;2022-09-30T02:40:37;7.00;99.90
23083;DHT22;11709;52.420;10.538;2022-09-30T02:44:39;7.00;99.90
23083;DHT22;11709;52.420;10.538;2022-09-30T02:48:45;7.00;99.90
23083;DHT22;11709;52.420;10.538;2022-09-30T02:57:32;7.00;99.90
23083;DHT22;11709;52.420;10.538;2022-09-30T03:01:32;7.00;99.90
23083;DHT22;11709;52.420;10.538;2022-09-30T03:05:34;7.00;99.90
23083;DHT22;11709;52.420;10.538;2022-09-30T03:09:37;6.90;99.90
23083;DHT22;11709;52.420;10.538;2022-09-30T03:26:51;6.80;99.90
23083;DHT22;11709;52.420;10.538;2022-09-30T03:35:09;6.70;99.90
23083;DHT22;11709;52.420;10.538;2022-09-30T03:39:23;6.70;99.90
23083;DHT22;11709;52.420;10.538;2022-09-30T03:43:35;6.60;99.90
23083;DHT22;11709;52.420;10.538;2022-09-30T03:47:41;6.60;99.90
23083;DHT22;11709;52.420;10.538;2022-09-30T03:51:44;6.50;99.90
23083;DHT22;11709;52.420;10.538;2022-09-30T03:55:50;6.50;99.90
23083;DHT22;11709;52.420;10.538;2022-09-30T03:59:53;6.50;99.90
23083;DHT22;11709;52.420;10.538;2022-09-30T04:03:55;6.60;99.90
23083;DHT22;11709;52.420;10.538;2022-09-30T04:07:58;6.60;99.90
23083;DHT22;11709;52.420;10.538;2022-09-30T04:12:01;6.50;99.90
23083;DHT22;11709;52.420;10.538;2022-09-30T04:16:04;6.50;99.90
23083;DHT22;11709;52.420;10.538;2022-09-30T04:20:08;6.50;99.90
23083;DHT22;11709;52.420;10.538;2022-09-30T04:24:11;6.40;99.90
23083;DHT22;11709;52.420;10.538;2022-09-30T04:28:13;6.30;99.90
23083;DHT22;11709;52.420;10.538;2022-09-30T04:32:15;6.30;99.90
23083;DHT22;11709;52.420;10.538;2022-09-30T04:36:18;6.30;99.90
23083;DHT22;11709;52.420;10.538;2022-09-30T04:40:21;6.30;99.90
23083;DHT22;11709;52.420;10.538;2022-09-30T04:44:24;6.30;99.90
23083;DHT22;11709;52.420;10.538;2022-09-30T04:48:26;6.30;99.90
23083;DHT22;11709;52.420;10.538;2022-09-30T04:52:30;6.20;99.90
23083;DHT22;11709;52.420;10.538;2022-09-30T04:56:33;6.20;99.90
23083;DHT22;11709;52.420;10.538;2022-09-30T05:00:35;6.20;99.90
23083;DHT22;11709;52.420;10.538;2022-09-30T05:04:38;6.20;99.90
23083;DHT22;11709;52.420;10.538;2022-09-30T05:08:41;6.10;99.90
23083;DHT22;11709;52.420;10.538;2022-09-30T05:12:43;6.10;99.90
23083;DHT22;11709;52.420;10.538;2022-09-30T05:16:46;6.00;99.90
23083;DHT22;11709;52.420;10.538;2022-09-30T05:20:50;5.90;99.90
23083;DHT22;11709;52.420;10.538;2022-09-30T05:24:53;5.90;99.90
23083;DHT22;11709;52.420;10.538;2022-09-30T05:28:57;5.90;99.90
23083;DHT22;11709;52.420;10.538;2022-09-30T05:32:59;5.60;99.90
23083;DHT22;11709;52.420;10.538;2022-09-30T05:37:02;5.80;99.90
23083;DHT22;11709;52.420;10.538;2022-09-30T05:41:11;5.80;99.90
23083;DHT22;11709;52.420;10.538;2022-09-30T05:45:10;5.90;99.90
23083;DHT22;11709;52.420;10.538;2022-09-30T05:49:13;5.90;99.90
23083;DHT22;11709;52.420;10.538;2022-09-30T05:53:16;5.90;99.90
23083;DHT22;11709;52.420;10.538;2022-09-30T05:57:19;5.90;99.90
23083;DHT22;11709;52.420;10.538;2022-09-30T06:01:22;6.00;99.90
23083;DHT22;11709;52.420;10.538;2022-09-30T06:05:25;6.10;99.90
23083;DHT22;11709;52.420;10.538;2022-09-30T06:09:27;6.10;99.90
23083;DHT22;11709;52.420;10.538;2022-09-30T06:13:30;6.20;99.90
23083;DHT22;11709;52.420;10.538;2022-09-30T06:17:33;6.30;99.90
23083;DHT22;11709;52.420;10.538;2022-09-30T06:21:36;6.40;99.90
23083;DHT22;11709;52.420;10.538;2022-09-30T06:25:40;6.50;99.90
23083;DHT22;11709;52.420;10.538;2022-09-30T06:29:44;6.70;99.90
23083;DHT22;11709;52.420;10.538;2022-09-30T06:33:47;6.80;99.90
23083;DHT22;11709;52.420;10.538;2022-09-30T06:37:53;7.10;99.90
23083;DHT22;11709;52.420;10.538;2022-09-30T06:41:55;7.20;99.90
23083;DHT22;11709;52.420;10.538;2022-09-30T06:45:58;7.50;99.90
23083;DHT22;11709;52.420;10.538;2022-09-30T06:50:01;7.70;99.90
23083;DHT22;11709;52.420;10.538;2022-09-30T06:54:03;8.00;99.90
23083;DHT22;11709;52.420;10.538;2022-09-30T06:58:08;8.30;99.90
23083;DHT22;11709;52.420;10.538;2022-09-30T07:02:11;8.50;99.90
23083;DHT22;11709;52.420;10.538;2022-09-30T07:06:14;8.60;99.90
23083;DHT22;11709;52.420;10.538;2022-09-30T07:10:17;8.80;99.90
23083;DHT22;11709;52.420;10.538;2022-09-30T07:14:20;9.00;99.90
23083;DHT22;11709;52.420;10.538;2022-09-30T07:18:24;9.20;99.90
23083;DHT22;11709;52.420;10.538;2022-09-30T07:22:28;9.40;99.90
23083;DHT22;11709;52.420;10.538;2022-09-30T07:26:32;9.80;99.90
23083;DHT22;11709;52.420;10.538;2022-09-30T07:30:34;9.90;99.90
23083;DHT22;11709;52.420;10.538;2022-09-30T07:34:38;10.10;99.90
23083;DHT22;11709;52.420;10.538;2022-09-30T07:38:45;10.30;99.90
23083;DHT22;11709;52.420;10.538;2022-09-30T07:42:52;10.40;99.90
23083;DHT22;11709;52.420;10.538;2022-09-30T07:46:55;10.50;99.90
23083;DHT22;11709;52.420;10.538;2022-09-30T07:50:58;10.60;99.90
23083;DHT22;11709;52.420;10.538;2022-09-30T07:55:01;10.80;99.90
23083;DHT22;11709;52.420;10.538;2022-09-30T07:59:04;11.00;99.90
23083;DHT22;11709;52.420;10.538;2022-09-30T08:03:07;10.90;99.90
23083;DHT22;11709;52.420;10.538;2022-09-30T08:07:09;11.10;99.90
23083;DHT22;11709;52.420;10.538;2022-09-30T08:11:13;11.40;99.90
23083;DHT22;11709;52.420;10.538;2022-09-30T08:15:16;11.60;99.90
23083;DHT22;11709;52.420;10.538;2022-09-30T08:19:21;12.00;99.90
23083;DHT22;11709;52.420;10.538;2022-09-30T08:23:23;12.40;99.90
23083;DHT22;11709;52.420;10.538;2022-09-30T08:27:26;12.50;99.90
23083;DHT22;11709;52.420;10.538;2022-09-30T08:31:28;12.50;99.90
23083;DHT22;11709;52.420;10.538;2022-09-30T08:35:34;12.60;99.90
23083;DHT22;11709;52.420;10.538;2022-09-30T08:39:37;12.70;99.90
23083;DHT22;11709;52.420;10.538;2022-09-30T08:43:54;13.20;99.90
23083;DHT22;11709;52.420;10.538;2022-09-30T08:52:07;13.30;99.90
23083;DHT22;11709;52.420;10.538;2022-09-30T08:56:11;13.60;99.90
23083;DHT22;11709;52.420;10.538;2022-09-30T09:00:16;14.00;99.90
23083;DHT22;11709;52.420;10.538;2022-09-30T09:04:19;14.40;99.90
23083;DHT22;11709;52.420;10.538;2022-09-30T09:09:10;15.00;99.90
23083;DHT22;11709;52.420;10.538;2022-09-30T09:13:08;14.90;99.90
23083;DHT22;11709;52.420;10.538;2022-09-30T09:21:53;15.30;99.90
23083;DHT22;11709;52.420;10.538;2022-09-30T09:25:59;15.70;99.90
23083;DHT22;11709;52.420;10.538;2022-09-30T09:30:13;16.00;99.90
23083;DHT22;11709;52.420;10.538;2022-09-30T09:34:15;16.20;99.90
23083;DHT22;11709;52.420;10.538;2022-09-30T09:38:35;16.70;99.90
23083;DHT22;11709;52.420;10.538;2022-09-30T09:46:58;16.50;99.90
23083;DHT22;11709;52.420;10.538;2022-09-30T09:55:06;16.80;99.90
23083;DHT22;11709;52.420;10.538;2022-09-30T09:59:17;17.00;99.90
23083;DHT22;11709;52.420;10.538;2022-09-30T10:03:22;17.10;99.90
23083;DHT22;11709;52.420;10.538;2022-09-30T10:07:29;16.90;99.90
23083;DHT22;11709;52.420;10.538;2022-09-30T10:11:33;16.90;99.90
23083;DHT22;11709;52.420;10.538;2022-09-30T10:15:40;17.20;99.90
23083;DHT22;11709;52.420;10.538;2022-09-30T10:19:42;17.40;99.90
23083;DHT22;11709;52.420;10.538;2022-09-30T10:23:46;18.20;99.90
23083;DHT22;11709;52.420;10.538;2022-09-30T10:28:01;18.10;99.90
23083;DHT22;11709;52.420;10.538;2022-09-30T10:32:06;18.30;99.90
23083;DHT22;11709;52.420;10.538;2022-09-30T10:36:28;18.60;99.90
23083;DHT22;11709;52.420;10.538;2022-09-30T10:40:30;18.60;99.90
23083;DHT22;11709;52.420;10.538;2022-09-30T10:44:40;18.90;99.90
23083;DHT22;11709;52.420;10.538;2022-09-30T10:48:40;19.50;99.90
23083;DHT22;11709;52.420;10.538;2022-09-30T10:53:04;19.80;99.90
23083;DHT22;11709;52.420;10.538;2022-09-30T10:57:21;19.60;99.90
23083;DHT22;11709;52.420;10.538;2022-09-30T11:01:32;19.60;99.90
23083;DHT22;11709;52.420;10.538;2022-09-30T11:05:38;19.60;99.90
23083;DHT22;11709;52.420;10.538;2022-09-30T11:09:48;19.80;99.90
23083;DHT22;11709;52.420;10.538;2022-09-30T11:18:16;20.50;99.90
23083;DHT22;11709;52.420;10.538;2022-09-30T11:22:38;20.50;99.90
23083;DHT22;11709;52.420;10.538;2022-09-30T11:48:17;20.20;99.20
23083;DHT22;11709;52.420;10.538;2022-09-30T11:52:24;20.10;99.90
23083;DHT22;11709;52.420;10.538;2022-09-30T12:00:48;20.30;99.90
23083;DHT22;11709;52.420;10.538;2022-09-30T12:04:56;20.30;99.70
23083;DHT22;11709;52.420;10.538;2022-09-30T12:09:14;19.80;99.90
23083;DHT22;11709;52.420;10.538;2022-09-30T12:13:30;20.00;99.20
23083;DHT22;11709;52.420;10.538;2022-09-30T12:17:45;20.80;99.10
23083;DHT22;11709;52.420;10.538;2022-09-30T12:22:00;20.50;98.00
23083;DHT22;11709;52.420;10.538;2022-09-30T12:26:02;20.10;99.90
23083;DHT22;11709;52.420;10.538;2022-09-30T12:30:14;20.50;98.70
23083;DHT22;11709;52.420;10.538;2022-09-30T12:43:27;21.60;93.90
23083;DHT22;11709;52.420;10.538;2022-09-30T12:47:46;21.70;92.10
23083;DHT22;11709;52.420;10.538;2022-09-30T12:51:57;22.20;92.00
23083;DHT22;11709;52.420;10.538;2022-09-30T12:56:12;21.70;90.60
23083;DHT22;11709;52.420;10.538;2022-09-30T13:00:18;21.90;91.40
23083;DHT22;11709;52.420;10.538;2022-09-30T13:04:33;22.10;91.30
23083;DHT22;11709;52.420;10.538;2022-09-30T13:08:47;22.70;89.80
23083;DHT22;11709;52.420;10.538;2022-09-30T13:13:09;23.30;85.60
23083;DHT22;11709;52.420;10.538;2022-09-30T13:16:59;24.20;82.00
23083;DHT22;11709;52.420;10.538;2022-09-30T13:25:15;25.10;77.00
23083;DHT22;11709;52.420;10.538;2022-09-30T13:33:39;25.20;71.30
23083;DHT22;11709;52.420;10.538;2022-09-30T13:37:37;24.90;69.50
23083;DHT22;11709;52.420;10.538;2022-09-30T13:41:40;24.20;72.70
23083;DHT22;11709;52.420;10.538;2022-09-30T13:45:45;23.80;75.20
23083;DHT22;11709;52.420;10.538;2022-09-30T13:49:51;24.10;73.70
23083;DHT22;11709;52.420;10.538;2022-09-30T13:53:57;24.00;73.90
23083;DHT22;11709;52.420;10.538;2022-09-30T13:58:13;23.40;73.30
23083;DHT22;11709;52.420;10.538;2022-09-30T14:06:46;24.10;72.80
23083;DHT22;11709;52.420;10.538;2022-09-30T14:11:18;23.90;70.70
23083;DHT22;11709;52.420;10.538;2022-09-30T14:15:45;23.10;70.40
23083;DHT22;11709;52.420;10.538;2022-09-30T14:20:22;22.90;71.80
23083;DHT22;11709;52.420;10.538;2022-09-30T14:24:25;22.50;73.00
23083;DHT22;11709;52.420;10.538;2022-09-30T14:28:35;22.70;74.40
23083;DHT22;11709;52.420;10.538;2022-09-30T14:36:47;23.00;75.00
23083;DHT22;11709;52.420;10.538;2022-09-30T14:40:53;23.30;73.30
23083;DHT22;11709;52.420;10.538;2022-09-30T14:45:02;22.40;72.60
23083;DHT22;11709;52.420;10.538;2022-09-30T14:49:07;21.90;76.30
23083;DHT22;11709;52.420;10.538;2022-09-30T14:53:35;22.10;74.90
23083;DHT22;11709;52.420;10.538;2022-09-30T14:57:34;21.50;76.80
23083;DHT22;11709;52.420;10.538;2022-09-30T15:01:36;21.50;77.40
23083;DHT22;11709;52.420;10.538;2022-09-30T15:05:39;21.10;78.10
23083;DHT22;11709;52.420;10.538;2022-09-30T15:09:46;21.00;79.90
23083;DHT22;11709;52.420;10.538;2022-09-30T15:14:00;21.00;79.70
23083;DHT22;11709;52.420;10.538;2022-09-30T15:18:22;21.40;80.00
23083;DHT22;11709;52.420;10.538;2022-09-30T15:22:27;21.10;78.90
23083;DHT22;11709;52.420;10.538;2022-09-30T15:26:30;20.90;79.90
23083;DHT22;11709;52.420;10.538;2022-09-30T15:30:34;20.60;80.40
23083;DHT22;11709;52.420;10.538;2022-09-30T15:34:37;20.60;80.40
23083;DHT22;11709;52.420;10.538;2022-09-30T15:38:39;20.30;82.00
23083;DHT22;11709;52.420;10.538;2022-09-30T15:42:54;20.30;81.70
23083;DHT22;11709;52.420;10.538;2022-09-30T15:47:02;20.20;82.40
23083;DHT22;11709;52.420;10.538;2022-09-30T15:51:26;20.40;83.30
23083;DHT22;11709;52.420;10.538;2022-09-30T15:55:38;20.10;83.80
23083;DHT22;11709;52.420;10.538;2022-09-30T15:59:58;19.60;85.00
23083;DHT22;11709;52.420;10.538;2022-09-30T16:04:09;19.40;86.30
23083;DHT22;11709;52.420;10.538;2022-09-30T16:08:23;19.20;86.50
23083;DHT22;11709;52.420;10.538;2022-09-30T16:12:32;18.80;86.90
23083;DHT22;11709;52.420;10.538;2022-09-30T16:16:33;18.60;88.50
23083;DHT22;11709;52.420;10.538;2022-09-30T16:20:37;18.30;89.40
23083;DHT22;11709;52.420;10.538;2022-09-30T16:24:40;18.10;90.70
23083;DHT22;11709;52.420;10.538;2022-09-30T16:28:43;17.80;91.50
23083;DHT22;11709;52.420;10.538;2022-09-30T16:32:48;17.60;93.00
23083;DHT22;11709;52.420;10.538;2022-09-30T16:36:53;17.40;94.10
23083;DHT22;11709;52.420;10.538;2022-09-30T16:40:56;17.30;95.10
23083;DHT22;11709;52.420;10.538;2022-09-30T16:45:00;17.00;97.70
23083;DHT22;11709;52.420;10.538;2022-09-30T16:49:18;16.70;99.90
23083;DHT22;11709;52.420;10.538;2022-09-30T16:53:21;16.50;99.90
23083;DHT22;11709;52.420;10.538;2022-09-30T16:57:23;16.30;99.90
23083;DHT22;11709;52.420;10.538;2022-09-30T17:01:26;16.20;99.90
23083;DHT22;11709;52.420;10.538;2022-09-30T17:05:29;16.00;99.90
23083;DHT22;11709;52.420;10.538;2022-09-30T17:09:31;15.80;99.90
23083;DHT22;11709;52.420;10.538;2022-09-30T17:13:34;15.70;99.90
23083;DHT22;11709;52.420;10.538;2022-09-30T17:17:36;15.50;99.90
23083;DHT22;11709;52.420;10.538;2022-09-30T17:21:39;15.30;99.90
23083;DHT22;11709;52.420;10.538;2022-09-30T17:25:41;15.20;99.90
23083;DHT22;11709;52.420;10.538;2022-09-30T17:29:44;15.00;99.90
23083;DHT22;11709;52.420;10.538;2022-09-30T17:33:46;14.80;99.90
23083;DHT22;11709;52.420;10.538;2022-09-30T17:37:49;14.70;99.90
23083;DHT22;11709;52.420;10.538;2022-09-30T17:41:51;14.60;99.90
23083;DHT22;11709;52.420;10.538;2022-09-30T17:46:14;14.40;99.90
23083;DHT22;11709;52.420;10.538;2022-09-30T17:50:21;14.20;99.90
23083;DHT22;11709;52.420;10.538;2022-09-30T17:54:23;13.90;99.90
23083;DHT22;11709;52.420;10.538;2022-09-30T17:58:27;13.70;99.90
23083;DHT22;11709;52.420;10.538;2022-09-30T18:02:29;13.40;99.90
23083;DHT22;11709;52.420;10.538;2022-09-30T18:06:32;13.30;99.90
23083;DHT22;11709;52.420;10.538;2022-09-30T18:10:37;13.20;99.90
23083;DHT22;11709;52.420;10.538;2022-09-30T18:14:40;12.90;99.90
23083;DHT22;11709;52.420;10.538;2022-09-30T18:18:44;12.80;99.90
23083;DHT22;11709;52.420;10.538;2022-09-30T18:22:46;12.60;99.90
23083;DHT22;11709;52.420;10.538;2022-09-30T18:26:49;12.60;99.90
23083;DHT22;11709;52.420;10.538;2022-09-30T18:30:53;12.50;99.90
23083;DHT22;11709;52.420;10.538;2022-09-30T18:34:56;12.40;99.90
23083;DHT22;11709;52.420;10.538;2022-09-30T18:39:00;12.40;99.90
23083;DHT22;11709;52.420;10.538;2022-09-30T18:43:03;12.20;99.90
23083;DHT22;11709;52.420;10.538;2022-09-30T18:47:05;12.10;99.90
23083;DHT22;11709;52.420;10.538;2022-09-30T18:51:08;12.00;99.90
23083;DHT22;11709;52.420;10.538;2022-09-30T18:55:10;12.00;99.90
23083;DHT22;11709;52.420;10.538;2022-09-30T18:59:13;11.90;99.90
23083;DHT22;11709;52.420;10.538;2022-09-30T19:03:16;11.90;99.90
23083;DHT22;11709;52.420;10.538;2022-09-30T19:07:20;11.70;99.90
23083;DHT22;11709;52.420;10.538;2022-09-30T19:11:23;11.70;99.90
23083;DHT22;11709;52.420;10.538;2022-09-30T19:15:26;11.60;99.90
23083;DHT22;11709;52.420;10.538;2022-09-30T19:19:28;11.60;99.90
23083;DHT22;11709;52.420;10.538;2022-09-30T19:23:31;11.40;99.90
23083;DHT22;11709;52.420;10.538;2022-09-30T19:27:34;11.40;99.90
23083;DHT22;11709;52.420;10.538;2022-09-30T19:31:38;11.40;99.90
23083;DHT22;11709;52.420;10.538;2022-09-30T19:35:44;11.40;99.90
23083;DHT22;11709;52.420;10.538;2022-09-30T19:39:46;11.40;99.90
23083;DHT22;11709;52.420;10.538;2022-09-30T19:43:49;11.30;99.90
23083;DHT22;11709;52.420;10.538;2022-09-30T19:47:52;11.30;99.90
23083;DHT22;11709;52.420;10.538;2022-09-30T19:51:54;11.30;99.90
23083;DHT22;11709;52.420;10.538;2022-09-30T19:56:08;11.30;99.90
23083;DHT22;11709;52.420;10.538;2022-09-30T20:00:13;11.30;99.90
23083;DHT22;11709;52.420;10.538;2022-09-30T20:04:16;11.40;99.90
23083;DHT22;11709;52.420;10.538;2022-09-30T20:08:19;11.30;99.90
23083;DHT22;11709;52.420;10.538;2022-09-30T20:12:22;11.30;99.90
23083;DHT22;11709;52.420;10.538;2022-09-30T20:16:25;11.30;99.90
23083;DHT22;11709;52.420;10.538;2022-09-30T20:20:27;11.30;99.90
23083;DHT22;11709;52.420;10.538;2022-09-30T20:24:35;11.30;99.90
23083;DHT22;11709;52.420;10.538;2022-09-30T20:28:39;11.30;99.90
23083;DHT22;11709;52.420;10.538;2022-09-30T20:32:42;11.30;99.90
23083;DHT22;11709;52.420;10.538;2022-09-30T20:36:45;11.30;99.90
23083;DHT22;11709;52.420;10.538;2022-09-30T20:40:53;11.30;99.90
23083;DHT22;11709;52.420;10.538;2022-09-30T20:44:56;11.20;99.90
23083;DHT22;11709;52.420;10.538;2022-09-30T20:49:00;11.20;99.90
23083;DHT22;11709;52.420;10.538;2022-09-30T20:53:08;11.40;99.90
23083;DHT22;11709;52.420;10.538;2022-09-30T20:57:11;11.10;99.90
23083;DHT22;11709;52.420;10.538;2022-09-30T21:01:16;11.10;99.90
23083;DHT22;11709;52.420;10.538;2022-09-30T21:05:21;11.00;99.90
23083;DHT22;11709;52.420;10.538;2022-09-30T21:09:24;11.00;99.90
23083;DHT22;11709;52.420;10.538;2022-09-30T21:13:26;10.90;99.90
23083;DHT22;11709;52.420;10.538;2022-09-30T21:17:29;10.90;99.90
23083;DHT22;11709;52.420;10.538;2022-09-30T21:21:32;10.90;99.90
23083;DHT22;11709;52.420;10.538;2022-09-30T21:25:34;10.80;99.90
23083;DHT22;11709;52.420;10.538;2022-09-30T21:29:37;10.60;99.90
23083;DHT22;11709;52.420;10.538;2022-09-30T21:33:39;10.60;99.90
23083;DHT22;11709;52.420;10.538;2022-09-30T21:37:43;10.60;99.90
23083;DHT22;11709;52.420;10.538;2022-09-30T21:41:47;10.70;99.90
23083;DHT22;11709;52.420;10.538;2022-09-30T21:46:01;10.60;99.90
23083;DHT22;11709;52.420;10.538;2022-09-30T21:50:04;10.80;99.90
23083;DHT22;11709;52.420;10.538;2022-09-30T21:54:07;10.60;99.90
23083;DHT22;11709;52.420;10.538;2022-09-30T21:58:11;10.50;99.90
23083;DHT22;11709;52.420;10.538;2022-09-30T22:02:15;10.60;99.90
23083;DHT22;11709;52.420;10.538;2022-09-30T22:06:17;10.50;99.90
23083;DHT22;11709;52.420;10.538;2022-09-30T22:10:20;10.20;99.90
23083;DHT22;11709;52.420;10.538;2022-09-30T22:14:23;10.40;99.90
23083;DHT22;11709;52.420;10.538;2022-09-30T22:18:25;10.20;99.90
23083;DHT22;11709;52.420;10.538;2022-09-30T22:22:29;10.40;99.90
23083;DHT22;11709;52.420;10.538;2022-09-30T22:26:31;10.40;99.90
23083;DHT22;11709;52.420;10.538;2022-09-30T22:30:34;10.40;99.90
23083;DHT22;11709;52.420;10.538;2022-09-30T22:34:37;10.40;99.90
23083;DHT22;11709;52.420;10.538;2022-09-30T22:38:57;10.30;99.90
23083;DHT22;11709;52.420;10.538;2022-09-30T22:43:00;10.40;99.90
23083;DHT22;11709;52.420;10.538;2022-09-30T22:47:07;10.30;99.90
23083;DHT22;11709;52.420;10.538;2022-09-30T22:51:14;10.30;99.90
23083;DHT22;11709;52.420;10.538;2022-09-30T22:55:17;10.00;99.90
23083;DHT22;11709;52.420;10.538;2022-09-30T22:59:20;10.50;99.90
23083;DHT22;11709;52.420;10.538;2022-09-30T23:03:24;10.40;99.90
23083;DHT22;11709;52.420;10.538;2022-09-30T23:11:29;10.30;99.90
23083;DHT22;11709;52.420;10.538;2022-09-30T23:15:32;10.50;99.90
23083;DHT22;11709;52.420;10.538;2022-09-30T23:19:34;10.30;99.90
23083;DHT22;11709;52.420;10.538;2022-09-30T23:23:38;10.00;99.90
23083;DHT22;11709;52.420;10.538;2022-09-30T23:27:40;10.10;99.90
23083;DHT22;11709;52.420;10.538;2022-09-30T23:31:43;10.20;99.90
23083;DHT22;11709;52.420;10.538;2022-09-30T23:35:46;10.30;99.90
23083;DHT22;11709;52.420;10.538;2022-09-30T23:39:49;10.30;99.90
23083;DHT22;11709;52.420;10.538;2022-09-30T23:43:51;10.30;99.90
23083;DHT22;11709;52.420;10.538;2022-09-30T23:47:54;10.20;99.90
23083;DHT22;11709;52.420;10.538;2022-09-30T23:56:03;10.30;99.90
